Airfield :







YOU CAN JOIN US ON...

 
LOGIN :

Register | Disclaimer

   EN    FR    IT 

 









Legend :    VFR   Marginal VFR   IFR   Intensive IFR   Very Intensive IFR
Visi :
Ceiling :
>= 8 km
>= 3000ft
5 to 8 km
1000 to 3000 ft
1500m to 5 km
500 to 1000 ft
800 to 1500m
200 to 500 ft
< 800m
< 200 ft
Symbols :   Thunderstorms  Fog  Heavy snow  Heavy precipitations  Wind > 20 kt






- Airport Elevation : 244 ft
- IATA code : YQB


CYQB - Quebec - Jean Lesage Int.

CURRENT METAR :
  • 071000Z 28002KT 20SM FEW005 BKN085 09/08 A2991 RMK SF1AC6 SF TR SLP131

EXPIRED METARs :
  • 070900Z 32002KT 15SM FEW005 BKN100 09/09 A2990 RMK SF1AC6 SF TR SLP127
  • 070800Z 30002KT 15SM FEW007 BKN098 09/09 A2989 RMK SF1AC7 SF TR SLP125

TAF TAF CYQB
Valid from the 07 at 06:00 until the 08 at 06:00 UTC


070542Z 0706/0806 VRB03KT P6SM FEW007 BKN015 OVC080
TEMPO 0706/0710 OVC080
PROB30 0706/0710 2SM BR BKN007
FM071000 VRB03KT P6SM SCT080
FM071500 VRB03KT P6SM BKN040
TEMPO 0715/0721 P6SM -SHRA
FM072100 VRB03KT P6SM BKN060
FM080000 34008KT P6SM SCT060 RMK NXT FCST BY 071200Z
ATIS : ENG : +1 418-871-6893 FRA : +1 418-871-6895
CZUL FIR / North America



MET'MAP, your aeronautical weather chart ! - Copyright ORBIFLY December 2007 - Disclaimer

ORBIFLY MET'MAP TEAM :

Programming & Development : Alexandra Zaïnal
Concept & original design : Baudouin d'Aumeries
Assistance for programming : Marc-Olivier Méhu
Technical & hardware support : Manuel Goepfert

Contact : metmap@orbifly.com




SOURCES & CREDITS :

   NOAA